メインページ
METAR-TAF:

METAR-TAF

空港 :

ラ・アウロラ国際空港

グアテマラシティ, グアテマラ

緯度: 14-35N, 経度: 090-31W, 海抜: 1489m

現時点の気象観測

当レポートは55分前の23:00(UTC)に作成
北/北東の風 18kt
気温 24°C
湿度 54%
気圧 1026 hPa
視程10km以上
高度2000ftの雲はほとんどない
高度20000ftの雲はほとんどない

METAR: MGGT 162300Z 02018KT 9999 FEW020 24/14 Q1026 A3030 FEW200

時間: 17:55 (23:55 UTC)

予報

予報は17日の 00時(UTC)から 17日の 24時(UTC)まで有効
の風 12kt
視程10km以上
高度1800ftの雲は散在している
17日の 02時(UTC)から 17日の 07時(UTC)まで一時的に
視程: 8000m
高度1800ftの雲は散在している, 塔状積雲.
高度2500ftの雲はほとんどない, 積乱雲.
激しい雷雨, 雨
17日の 01時(UTC)から 17日の 03時(UTC)まで徐々に
高度1600ftの雲は散在している
17日の 14時(UTC)から 17日の 18時(UTC)まで徐々に
高度1800ftの雲はほとんどない
17日の 18時(UTC)から 17日の 20時(UTC)まで徐々に
北東の風 10kt
高度2000ftの雲はほとんどない

TAF: MGGT 1700/1724 36012KT 9999 SCT018 TX25/1720Z TN16/1712Z TEMPO 1702/1707 8000 TSRA SCT018TCU FEW025CB BECMG 1701/1703 SCT016 BECMG 1714/1718 FEW018 BECMG 1718/1720 05010KT FEW020

4,000以上の空港の気象観測と天気予報(METAR報とTAF報)

利用可能な観測所は地図上に黄色い丸と赤い丸で示す。

丸の上にカーソルを重ねると観測所名を参照できる。

次にクリックすると気象観測と天気予報を参照できる。

マップの切り替え:黒色「×」印の緑ボタンをクリックして拡大、「-」印の緑ボタンをクリックして縮小、緑色の三角印をクリックして隣りの地図に切り替え


METAR-TAF: